createdAt,value
2022-08-22T00:03:03.717Z,20.03
2022-08-22T00:03:12.286Z,20.33
2022-08-22T00:07:24.807Z,19.35
2022-08-22T00:13:07.439Z,19.34
2022-08-22T00:18:48.018Z,19.30
2022-08-22T00:21:39.953Z,19.27
2022-08-22T00:27:11.006Z,19.29
2022-08-22T00:32:48.528Z,19.26
2022-08-22T00:38:28.632Z,19.14
2022-08-22T00:41:26.492Z,19.08
2022-08-22T00:53:51.159Z,19.06
2022-08-22T00:59:57.742Z,19.10
2022-08-22T01:06:12.199Z,18.84
2022-08-22T01:09:06.084Z,18.89
2022-08-22T01:12:32.940Z,18.96
2022-08-22T01:15:25.486Z,18.67
2022-08-22T01:21:33.003Z,18.81
2022-08-22T01:25:22.454Z,18.78
2022-08-22T01:29:12.718Z,18.72
2022-08-22T01:38:34.027Z,18.73
2022-08-22T01:41:51.786Z,18.76
2022-08-22T01:53:34.042Z,18.69
2022-08-22T02:02:23.759Z,18.79
2022-08-22T02:08:05.181Z,18.69
2022-08-22T02:13:54.087Z,18.63
2022-08-22T02:19:38.930Z,18.56
2022-08-22T02:25:33.050Z,18.60
2022-08-22T02:36:53.799Z,18.41
2022-08-22T02:42:40.192Z,18.42
2022-08-22T02:45:32.155Z,18.32
2022-08-22T02:48:28.568Z,18.20
2022-08-22T02:54:01.314Z,18.09
2022-08-22T02:59:59.443Z,18.07
2022-08-22T03:05:33.744Z,17.90
2022-08-22T03:08:25.436Z,17.83
2022-08-22T03:16:47.150Z,17.70
2022-08-22T03:25:22.429Z,17.59
2022-08-22T03:31:03.446Z,17.69
2022-08-22T03:34:17.410Z,17.44
2022-08-22T03:39:59.010Z,17.66
2022-08-22T03:46:35.637Z,17.50
2022-08-22T03:52:27.170Z,17.53
2022-08-22T04:01:33.399Z,17.66
2022-08-22T04:04:50.798Z,17.52
2022-08-22T04:08:08.040Z,17.37
2022-08-22T04:11:26.925Z,17.19
2022-08-22T04:14:35.901Z,17.05
2022-08-22T04:17:48.988Z,17.02
2022-08-22T04:24:17.925Z,16.91
2022-08-22T04:30:02.232Z,16.97
2022-08-22T04:35:44.967Z,17.02
2022-08-22T04:38:40.530Z,17.11
2022-08-22T04:44:21.539Z,17.06
2022-08-22T04:50:10.068Z,17.16
2022-08-22T04:56:17.099Z,17.15
2022-08-22T04:59:08.863Z,17.11
2022-08-22T05:01:59.589Z,17.11
2022-08-22T05:04:53.571Z,17.22
2022-08-22T05:13:13.315Z,17.35
2022-08-22T05:18:50.503Z,17.45
2022-08-22T05:21:41.704Z,17.48
2022-08-22T05:27:18.010Z,19.23
2022-08-22T05:30:12.440Z,20.18
2022-08-22T05:36:04.287Z,22.49
2022-08-22T05:41:40.199Z,23.31
2022-08-22T05:50:12.501Z,24.06
2022-08-22T05:55:53.833Z,24.60
2022-08-22T06:01:41.720Z,23.59
2022-08-22T06:07:22.115Z,22.16
2022-08-22T06:13:11.454Z,21.12
2022-08-22T06:16:00.039Z,20.81
2022-08-22T06:21:51.780Z,20.61
2022-08-22T06:24:41.931Z,20.47
2022-08-22T06:30:17.050Z,20.37
2022-08-22T06:36:16.364Z,20.17
2022-08-22T06:41:54.130Z,20.16
2022-08-22T06:47:50.223Z,19.98
2022-08-22T06:50:39.189Z,20.03
2022-08-22T06:53:31.420Z,20.27
2022-08-22T06:56:24.456Z,20.42
2022-08-22T07:02:04.802Z,21.98
2022-08-22T07:07:34.282Z,23.07
2022-08-22T07:10:23.915Z,23.34
2022-08-22T07:16:04.351Z,23.87
2022-08-22T07:21:47.104Z,24.20
2022-08-22T07:27:29.030Z,23.96
2022-08-22T07:33:25.752Z,23.81
2022-08-22T07:41:34.053Z,24.17
2022-08-22T07:44:31.308Z,24.24
2022-08-22T07:50:09.636Z,24.13
2022-08-22T07:53:01.321Z,24.13
2022-08-22T07:55:50.309Z,24.38
2022-08-22T08:01:31.390Z,24.36
2022-08-22T08:04:24.541Z,24.50
2022-08-22T08:07:15.337Z,24.34
2022-08-22T08:12:57.966Z,24.41
2022-08-22T08:21:11.403Z,24.09
2022-08-22T08:27:10.069Z,24.24
2022-08-22T08:32:50.250Z,24.02
2022-08-22T08:38:27.230Z,24.16
2022-08-22T08:44:32.240Z,23.87
2022-08-22T08:54:19.802Z,24.39
2022-08-22T08:57:12.361Z,24.12
2022-08-22T09:03:00.503Z,24.32
2022-08-22T09:09:13.094Z,24.16
2022-08-22T09:12:12.258Z,24.17
2022-08-22T09:15:22.134Z,23.99
2022-08-22T09:24:53.772Z,23.96
2022-08-22T09:30:29.856Z,24.42
2022-08-22T09:33:21.397Z,24.35
2022-08-22T09:39:08.730Z,24.64
2022-08-22T09:44:42.371Z,24.60
2022-08-22T09:50:24.708Z,24.71
2022-08-22T09:58:48.484Z,24.43
2022-08-22T10:04:47.896Z,24.76
2022-08-22T10:10:34.530Z,24.62
2022-08-22T10:16:19.944Z,24.87
2022-08-22T10:22:22.004Z,25.10
2022-08-22T10:25:25.067Z,25.32
2022-08-22T10:28:32.294Z,25.37
2022-08-22T10:34:17.916Z,25.61
2022-08-22T10:39:57.456Z,25.80
2022-08-22T10:45:37.339Z,25.36
2022-08-22T10:51:37.570Z,25.62
2022-08-22T10:54:52.479Z,25.29
2022-08-22T11:00:46.534Z,25.63
2022-08-22T11:06:49.064Z,25.91
2022-08-22T11:15:42.000Z,25.91
2022-08-22T11:19:15.076Z,25.91
2022-08-22T11:28:34.365Z,26.44
2022-08-22T11:31:28.495Z,26.43
2022-08-22T11:37:11.560Z,26.18
2022-08-22T11:42:55.634Z,26.24
2022-08-22T11:48:39.139Z,26.19
2022-08-22T11:54:21.984Z,26.35
2022-08-22T12:00:11.370Z,26.60
2022-08-22T12:06:49.647Z,26.65
2022-08-22T12:09:50.855Z,26.44
2022-08-22T12:15:46.690Z,26.28
2022-08-22T12:18:45.698Z,26.14
2022-08-22T12:22:00.419Z,26.07
2022-08-22T12:27:56.243Z,26.67
2022-08-22T12:33:55.270Z,26.88
2022-08-22T12:40:06.285Z,26.95
2022-08-22T12:43:39.896Z,26.99
2022-08-22T12:49:30.382Z,26.74
2022-08-22T12:58:51.271Z,26.32
2022-08-22T13:04:33.160Z,26.72
2022-08-22T13:07:34.222Z,26.94
2022-08-22T13:13:31.735Z,26.43
2022-08-22T13:19:14.420Z,26.47
2022-08-22T13:24:52.530Z,26.71
2022-08-22T13:30:30.949Z,26.32
2022-08-22T13:36:15.001Z,26.54
2022-08-22T13:41:58.863Z,26.70
2022-08-22T13:47:35.352Z,26.94
2022-08-22T13:56:00.372Z,26.94
2022-08-22T14:01:42.006Z,27.03
2022-08-22T14:04:36.070Z,26.76
2022-08-22T14:10:21.447Z,26.78
2022-08-22T14:16:22.076Z,26.59
2022-08-22T14:21:54.111Z,26.78
2022-08-22T14:24:46.162Z,26.68
2022-08-22T14:30:26.707Z,26.64
2022-08-22T14:33:19.738Z,26.66
2022-08-22T14:36:15.221Z,26.77
2022-08-22T14:41:58.544Z,27.06
2022-08-22T14:48:09.999Z,26.90
2022-08-22T14:53:28.422Z,26.81
2022-08-22T14:56:21.912Z,26.34
2022-08-22T15:02:01.857Z,26.46
2022-08-22T15:07:43.546Z,26.17
2022-08-22T15:10:34.424Z,26.10
2022-08-22T15:13:25.316Z,26.18
2022-08-22T15:16:21.920Z,26.36
2022-08-22T15:19:27.854Z,26.60
2022-08-22T15:25:09.171Z,26.31
2022-08-22T15:28:05.420Z,26.23
2022-08-22T15:33:51.725Z,26.19
2022-08-22T15:39:38.243Z,26.53
2022-08-22T15:45:26.147Z,26.63
2022-08-22T15:51:15.456Z,26.66
2022-08-22T15:57:17.403Z,26.30
2022-08-22T16:03:01.538Z,26.08
2022-08-22T16:08:35.814Z,26.26
2022-08-22T16:14:25.300Z,26.42
2022-08-22T16:20:56.413Z,26.19
2022-08-22T16:27:23.894Z,26.11
2022-08-22T16:32:57.824Z,25.99
2022-08-22T16:36:29.643Z,25.86
2022-08-22T16:42:30.478Z,25.95
2022-08-22T16:48:30.756Z,25.78
2022-08-22T16:54:15.379Z,25.74
2022-08-22T16:57:09.163Z,25.57
2022-08-22T17:02:56.401Z,25.40
2022-08-22T17:08:45.079Z,25.38
2022-08-22T17:14:30.619Z,25.55
2022-08-22T17:20:15.089Z,25.61
2022-08-22T17:25:54.473Z,25.60
2022-08-22T17:31:36.688Z,25.32
2022-08-22T17:37:18.005Z,25.34
2022-08-22T17:43:05.707Z,25.20
2022-08-22T17:46:13.258Z,25.05
2022-08-22T17:54:29.954Z,24.69
2022-08-22T18:03:02.791Z,24.48
2022-08-22T18:14:29.022Z,24.08
2022-08-22T18:22:59.683Z,23.84
2022-08-22T18:28:48.394Z,23.82
2022-08-22T18:31:47.044Z,23.66
2022-08-22T18:34:40.773Z,23.50
2022-08-22T18:40:32.758Z,23.37
2022-08-22T18:49:54.212Z,23.24
2022-08-22T18:55:49.425Z,23.01
2022-08-22T18:59:05.569Z,22.88
2022-08-22T19:05:03.907Z,22.73
2022-08-22T19:14:22.018Z,22.62
2022-08-22T19:20:48.926Z,22.59
2022-08-22T19:23:47.903Z,22.55
2022-08-22T19:29:49.073Z,22.48
2022-08-22T19:33:04.940Z,22.46
2022-08-22T19:36:13.252Z,22.37
2022-08-22T19:47:30.192Z,22.34
2022-08-22T19:50:33.830Z,22.33
2022-08-22T19:56:21.423Z,22.19
2022-08-22T20:02:05.539Z,22.23
2022-08-22T20:08:21.303Z,22.17
2022-08-22T20:11:18.130Z,22.13
2022-08-22T20:14:20.091Z,22.12
2022-08-22T20:17:13.767Z,22.04
2022-08-22T20:22:49.701Z,22.05
2022-08-22T20:26:00.983Z,21.96
2022-08-22T20:28:52.366Z,21.95
2022-08-22T20:34:26.630Z,21.86
2022-08-22T20:46:01.133Z,21.47
2022-08-22T20:51:37.997Z,21.51
2022-08-22T20:54:31.680Z,21.60
2022-08-22T21:08:30.953Z,21.41
2022-08-22T21:17:27.984Z,21.18
2022-08-22T21:23:14.203Z,21.11
2022-08-22T21:28:57.771Z,20.98
2022-08-22T21:34:37.918Z,20.90
2022-08-22T21:37:30.476Z,20.83
2022-08-22T21:43:06.441Z,20.70
2022-08-22T21:48:43.751Z,20.99
2022-08-22T21:54:40.953Z,20.85
2022-08-22T21:57:36.997Z,20.61
2022-08-22T22:00:48.927Z,20.50
2022-08-22T22:06:36.659Z,20.60
2022-08-22T22:09:25.512Z,20.35
2022-08-22T22:14:57.379Z,19.95
2022-08-22T22:17:46.219Z,19.92
2022-08-22T22:23:22.047Z,20.05
2022-08-22T22:26:11.501Z,20.03
2022-08-22T22:31:46.829Z,20.19
2022-08-22T22:34:36.900Z,20.14
2022-08-22T22:37:26.922Z,20.11
2022-08-22T22:43:04.570Z,20.20
2022-08-22T22:48:45.780Z,20.42
2022-08-22T22:54:27.274Z,20.29
2022-08-22T23:00:00.440Z,19.95
2022-08-22T23:05:50.828Z,20.08
2022-08-22T23:08:39.576Z,20.03
2022-08-22T23:11:30.168Z,20.15
2022-08-22T23:17:07.568Z,20.27
2022-08-22T23:22:46.123Z,20.03
2022-08-22T23:28:21.996Z,19.78
2022-08-22T23:34:22.631Z,19.85
2022-08-22T23:39:52.340Z,20.07
2022-08-22T23:45:28.259Z,19.89
2022-08-22T23:51:00.911Z,19.67
2022-08-22T23:56:40.568Z,19.59
2022-08-22T23:59:33.538Z,19.57
